createdAt,value
2018-12-27T00:01:13.946Z,23.19
2018-12-27T00:07:08.994Z,22.37
2018-12-27T00:13:03.954Z,23.3
2018-12-27T00:18:59.012Z,24.58
2018-12-27T00:24:53.981Z,22.2
2018-12-27T00:30:48.993Z,19.92
2018-12-27T00:36:43.963Z,23.2
2018-12-27T00:42:38.954Z,25.47
2018-12-27T00:48:34.043Z,20.36
2018-12-27T00:54:28.981Z,19.52
2018-12-27T01:00:24.023Z,20.09
2018-12-27T01:06:18.979Z,19.26
2018-12-27T01:12:13.995Z,23.51
2018-12-27T01:18:08.994Z,25.41
2018-12-27T01:24:03.994Z,21.47
2018-12-27T01:29:58.977Z,29.96
2018-12-27T01:35:54.004Z,24
2018-12-27T01:41:49.041Z,22.38
2018-12-27T01:47:44.006Z,28.5
2018-12-27T01:53:39.060Z,23.12
2018-12-27T01:59:34.006Z,28.43
2018-12-27T02:05:28.998Z,22.59
2018-12-27T02:11:24.009Z,24.67
2018-12-27T02:17:19.024Z,22.18
2018-12-27T02:23:14.021Z,21.31
2018-12-27T02:29:09.020Z,31.2
2018-12-27T02:35:04.051Z,26.25
2018-12-27T02:40:59.075Z,27.73
2018-12-27T02:46:54.047Z,25.83
2018-12-27T02:52:49.083Z,28.3
2018-12-27T02:58:44.071Z,28.65
2018-12-27T03:04:39.058Z,29.67
2018-12-27T03:10:34.059Z,25.84
2018-12-27T03:16:29.098Z,29.77
2018-12-27T03:22:24.048Z,25.6
2018-12-27T03:28:19.068Z,26.23
2018-12-27T03:34:14.049Z,24.58
2018-12-27T03:40:09.075Z,25.76
2018-12-27T03:46:04.073Z,24.69
2018-12-27T03:51:59.102Z,22.18
2018-12-27T03:57:54.086Z,24.47
2018-12-27T04:03:49.099Z,22.12
2018-12-27T04:09:44.069Z,20.75
2018-12-27T04:15:39.110Z,21.26
2018-12-27T04:21:34.103Z,22.93
2018-12-27T04:27:29.105Z,26.08
2018-12-27T04:33:24.101Z,26.46
2018-12-27T04:39:19.080Z,19.64
2018-12-27T04:45:14.106Z,18.78
2018-12-27T04:51:09.095Z,22.67
2018-12-27T04:57:04.122Z,23.02
2018-12-27T05:02:59.107Z,20.43
2018-12-27T05:08:54.093Z,17.38
2018-12-27T05:14:49.097Z,22.08
2018-12-27T05:20:44.112Z,21.98
2018-12-27T05:26:39.115Z,19.38
2018-12-27T05:32:34.120Z,25.37
2018-12-27T05:38:29.138Z,18.67
2018-12-27T05:44:24.138Z,21.87
2018-12-27T05:50:19.143Z,20
2018-12-27T05:56:14.129Z,20.58
2018-12-27T06:02:09.143Z,18.37
2018-12-27T06:08:04.154Z,22.35
2018-12-27T06:13:59.227Z,21.77
2018-12-27T06:19:54.151Z,20.15
2018-12-27T06:25:49.142Z,21.07
2018-12-27T06:31:44.153Z,23.7
2018-12-27T06:37:39.170Z,20.63
2018-12-27T06:43:34.148Z,20.44
2018-12-27T06:49:29.217Z,26.13
2018-12-27T06:55:24.181Z,20.26
2018-12-27T07:01:19.182Z,24.89
2018-12-27T07:07:14.183Z,23.77
2018-12-27T07:13:09.186Z,25.95
2018-12-27T07:19:04.180Z,26.44
2018-12-27T07:24:59.172Z,21.82
2018-12-27T07:30:54.195Z,21.75
2018-12-27T07:36:49.199Z,19.92
2018-12-27T07:42:44.236Z,19.83
2018-12-27T07:48:39.199Z,18.69
2018-12-27T07:54:34.210Z,19.51
2018-12-27T08:00:29.207Z,11.97
2018-12-27T08:06:24.236Z,21.17
2018-12-27T08:12:19.221Z,21.24
2018-12-27T08:18:14.201Z,23.1
2018-12-27T08:24:09.267Z,22.57
2018-12-27T08:30:04.206Z,24.23
2018-12-27T08:35:59.227Z,32.94
2018-12-27T08:41:54.205Z,26.04
2018-12-27T08:47:49.271Z,27.8
2018-12-27T08:53:44.267Z,28.67
2018-12-27T08:59:39.294Z,28.55
2018-12-27T09:05:34.248Z,25.4
2018-12-27T09:11:29.231Z,27.47
2018-12-27T09:17:24.253Z,26.88
2018-12-27T09:23:19.232Z,32.54
2018-12-27T09:29:14.246Z,30.02
2018-12-27T09:35:09.289Z,29.8
2018-12-27T09:41:04.258Z,29.64
2018-12-27T09:46:59.290Z,32.06
2018-12-27T09:52:54.253Z,36.66
2018-12-27T09:58:49.279Z,31.69
2018-12-27T10:04:44.270Z,25.47
2018-12-27T10:10:39.272Z,25.77
2018-12-27T10:16:34.277Z,26.12
2018-12-27T10:22:29.275Z,23.38
2018-12-27T10:28:24.284Z,26.43
2018-12-27T10:34:19.308Z,19.2
2018-12-27T10:40:14.287Z,19.6
2018-12-27T10:46:09.307Z,22.22
2018-12-27T10:52:04.289Z,18.9
2018-12-27T10:57:59.324Z,18.6
2018-12-27T11:03:54.296Z,23.61
2018-12-27T11:09:49.285Z,22.3
2018-12-27T11:15:44.309Z,17.29
2018-12-27T11:21:39.325Z,19.37
2018-12-27T11:27:34.304Z,20.78
2018-12-27T11:33:29.322Z,22.38
2018-12-27T11:39:24.372Z,18.01
2018-12-27T11:45:19.333Z,21.01
2018-12-27T11:51:14.314Z,20.61
2018-12-27T11:57:09.333Z,17.39
2018-12-27T12:03:04.315Z,21.11
2018-12-27T12:08:59.368Z,26.92
2018-12-27T12:14:54.340Z,21.12
2018-12-27T12:20:49.342Z,24.78
2018-12-27T12:26:44.344Z,23.47
2018-12-27T12:32:39.355Z,22.17
2018-12-27T12:38:34.361Z,19.9
2018-12-27T12:44:29.400Z,22.5
2018-12-27T12:50:24.359Z,21.61
2018-12-27T12:56:19.350Z,36.39
2018-12-27T13:02:14.377Z,28.3
2018-12-27T13:08:09.387Z,20.64
2018-12-27T13:14:04.365Z,25.09
2018-12-27T13:19:59.374Z,23.91
2018-12-27T13:25:54.452Z,27.13
2018-12-27T13:31:49.388Z,19.14
2018-12-27T13:37:44.389Z,22.11
2018-12-27T13:43:39.396Z,21.96
2018-12-27T13:49:34.415Z,20.78
2018-12-27T13:55:29.409Z,21.05
2018-12-27T14:01:24.395Z,24.06
2018-12-27T14:07:19.392Z,26.3
2018-12-27T14:13:14.427Z,21.99
2018-12-27T14:19:09.424Z,22.84
2018-12-27T14:25:04.492Z,23.21
2018-12-27T14:30:59.448Z,19.44
2018-12-27T14:36:54.450Z,19.42
2018-12-27T14:42:49.441Z,19.49
2018-12-27T14:48:44.481Z,21.23
2018-12-27T14:54:39.461Z,24.3
2018-12-27T15:00:34.480Z,22.98
2018-12-27T15:06:29.441Z,11.91
2018-12-27T15:12:24.449Z,19.09
2018-12-27T15:18:19.444Z,106.77
2018-12-27T15:24:14.544Z,35.3
2018-12-27T15:30:09.481Z,34.99
2018-12-27T15:36:04.500Z,26.58
2018-12-27T15:41:59.499Z,19.28
2018-12-27T15:47:54.503Z,25.62
2018-12-27T15:53:49.481Z,24.76
2018-12-27T15:59:44.483Z,24.15
2018-12-27T16:05:39.477Z,21.47
2018-12-27T16:11:34.491Z,23.1
2018-12-27T16:17:29.459Z,22.44
2018-12-27T16:23:24.474Z,24.66
2018-12-27T16:29:19.516Z,19.42
2018-12-27T16:35:14.532Z,28.61
2018-12-27T16:41:09.525Z,37.86
2018-12-27T16:47:04.494Z,51.68
2018-12-27T16:52:59.542Z,45.09
2018-12-27T16:58:54.502Z,36.18
2018-12-27T17:04:49.548Z,36.12
2018-12-27T17:10:44.499Z,42.47
2018-12-27T17:16:39.518Z,35.87
2018-12-27T17:22:34.555Z,38.56
2018-12-27T17:28:29.521Z,49.63
2018-12-27T17:34:24.566Z,51.57
2018-12-27T17:40:19.524Z,43.92
2018-12-27T17:46:14.549Z,39.68
2018-12-27T17:52:09.558Z,41.13
2018-12-27T17:58:04.530Z,39.54
2018-12-27T18:03:59.520Z,41.83
2018-12-27T18:09:54.567Z,40.8
2018-12-27T18:15:49.601Z,46.22
2018-12-27T18:21:44.558Z,44.3
2018-12-27T18:27:39.584Z,43.76
2018-12-27T18:33:34.621Z,42.27
2018-12-27T18:39:29.612Z,48.71
2018-12-27T18:45:24.658Z,37.74
2018-12-27T18:51:19.557Z,44.27
2018-12-27T18:57:14.581Z,48.37
2018-12-27T19:03:09.575Z,46.31
2018-12-27T19:09:04.614Z,56.07
2018-12-27T19:14:59.602Z,47.41
2018-12-27T19:20:54.577Z,51.41
2018-12-27T19:26:49.606Z,46.51
2018-12-27T19:32:44.583Z,43.26
2018-12-27T19:38:39.602Z,41.5
2018-12-27T19:44:34.611Z,41.85
2018-12-27T19:50:29.711Z,52.58
2018-12-27T19:56:24.639Z,51.07
2018-12-27T20:02:19.628Z,54.99
2018-12-27T20:08:14.616Z,52.2
2018-12-27T20:14:09.629Z,62.83
2018-12-27T20:20:04.612Z,50.38
2018-12-27T20:25:59.643Z,66.48
2018-12-27T20:31:54.615Z,52
2018-12-27T20:37:49.717Z,56
2018-12-27T20:43:44.617Z,51.11
2018-12-27T20:49:39.644Z,55.82
2018-12-27T20:55:34.634Z,46.89
2018-12-27T21:01:29.656Z,50.59
2018-12-27T21:07:24.656Z,45.62
2018-12-27T21:13:19.699Z,57.37
2018-12-27T21:19:14.647Z,56.11
2018-12-27T21:25:09.661Z,58.59
2018-12-27T21:31:04.656Z,50.76
2018-12-27T21:36:59.702Z,48.4
2018-12-27T21:42:54.655Z,46.56
2018-12-27T21:48:49.669Z,44.3
2018-12-27T21:54:44.673Z,41.37
2018-12-27T22:00:39.680Z,41.67
2018-12-27T22:06:34.689Z,34.96
2018-12-27T22:12:29.685Z,39.06
2018-12-27T22:18:24.707Z,41.77
2018-12-27T22:24:19.726Z,34.21
2018-12-27T22:30:14.705Z,38.65
2018-12-27T22:36:09.734Z,37.2
2018-12-27T22:42:04.754Z,35.95
2018-12-27T22:47:59.705Z,29.95
2018-12-27T22:53:54.681Z,34.13
2018-12-27T22:59:49.718Z,38.19
2018-12-27T23:05:44.713Z,25.13
2018-12-27T23:11:39.703Z,29.24
2018-12-27T23:17:34.716Z,30.81
2018-12-27T23:23:29.727Z,24.23
2018-12-27T23:29:24.785Z,25.56
2018-12-27T23:35:19.722Z,24.72
2018-12-27T23:41:14.731Z,27.55
2018-12-27T23:47:09.772Z,25.44
2018-12-27T23:53:04.756Z,24.3
2018-12-27T23:58:59.740Z,21.4
